Time,TemperatureF,DewpointF,PressureIn,WindDirection,WindDirectionDegrees,WindSpeedMPH,WindSpeedGustMPH,Humidity,HourlyPrecipIn,Conditions,Clouds,dailyrainin,SoftwareType,DateUTC
2013-02-14 00:01:00,26.8,18.0,29.65,ENE,64,0.0,0.0,69,0.00,,---,0.00,VWS V13.01,2013-02-14 06:01:00,
2013-02-14 00:07:00,26.8,18.0,29.65,ENE,64,0.0,0.0,69,0.00,,---,0.00,VWS V13.01,2013-02-14 06:07:00,
2013-02-14 00:13:00,26.8,18.0,29.65,ENE,65,0.0,0.0,69,0.00,,---,0.00,VWS V13.01,2013-02-14 06:13:00,
2013-02-14 00:18:00,26.8,18.0,29.65,ENE,64,0.0,0.0,69,0.00,,---,0.00,VWS V13.01,2013-02-14 06:18:00,
2013-02-14 00:24:00,26.8,18.0,29.65,ENE,64,0.0,0.0,69,0.00,,---,0.00,VWS V13.01,2013-02-14 06:24:00,
2013-02-14 00:30:00,26.8,18.0,29.65,ENE,65,0.0,0.0,69,0.00,,---,0.00,VWS V13.01,2013-02-14 06:30:00,
2013-02-14 00:35:00,26.8,18.0,29.65,ENE,64,0.0,0.0,69,0.00,,---,0.00,VWS V13.01,2013-02-14 06:35:00,
2013-02-14 00:40:00,26.8,17.6,29.65,ENE,64,0.0,0.0,68,0.00,,---,0.00,VWS V13.01,2013-02-14 06:40:00,
2013-02-14 00:45:00,26.6,17.8,29.65,ENE,64,0.0,0.0,69,0.00,,---,0.00,VWS V13.01,2013-02-14 06:45:00,
2013-02-14 00:51:00,26.6,17.5,29.65,ENE,64,0.0,0.0,68,0.00,,---,0.00,VWS V13.01,2013-02-14 06:51:00,
2013-02-14 00:56:00,26.6,17.5,29.65,ENE,64,0.0,0.0,68,0.00,,---,0.00,VWS V13.01,2013-02-14 06:56:00,
2013-02-14 01:02:00,26.6,17.5,29.65,ENE,64,0.0,0.0,68,0.00,,---,0.00,VWS V13.01,2013-02-14 07:02:00,
2013-02-14 01:07:00,26.4,17.3,29.65,ENE,64,0.0,0.0,68,0.00,,---,0.00,VWS V13.01,2013-02-14 07:07:00,
2013-02-14 01:13:00,26.2,16.8,29.65,ENE,64,0.0,0.0,67,0.00,,---,0.00,VWS V13.01,2013-02-14 07:13:00,
2013-02-14 01:19:00,26.1,16.6,29.65,ENE,64,0.0,0.0,67,0.00,,---,0.00,VWS V13.01,2013-02-14 07:19:00,
2013-02-14 01:24:00,26.1,16.6,29.65,ENE,64,0.0,0.0,67,0.00,,---,0.00,VWS V13.01,2013-02-14 07:24:00,
2013-02-14 01:30:00,25.7,16.3,29.65,ENE,64,0.0,0.0,67,0.00,,---,0.00,VWS V13.01,2013-02-14 07:30:00,
2013-02-14 01:36:00,25.3,15.9,29.65,ENE,64,0.0,0.0,67,0.00,,---,0.00,VWS V13.01,2013-02-14 07:36:00,
2013-02-14 01:41:00,25.2,15.8,29.65,ENE,64,0.0,0.0,67,0.00,,---,0.00,VWS V13.01,2013-02-14 07:41:00,
2013-02-14 01:47:00,24.8,15.8,29.65,ENE,64,0.0,0.0,68,0.00,,---,0.00,VWS V13.01,2013-02-14 07:47:00,
2013-02-14 01:53:00,24.6,15.9,29.65,ENE,64,0.0,0.0,69,0.00,,---,0.00,VWS V13.01,2013-02-14 07:53:00,
2013-02-14 01:58:00,24.4,15.7,29.65,ENE,64,0.0,0.0,69,0.00,,---,0.00,VWS V13.01,2013-02-14 07:58:00,
2013-02-14 02:04:00,24.3,15.6,29.65,ENE,64,0.0,0.0,69,0.00,,---,0.00,VWS V13.01,2013-02-14 08:04:00,
2013-02-14 02:09:00,24.1,15.7,29.65,ENE,64,0.0,0.0,70,0.00,,---,0.00,VWS V13.01,2013-02-14 08:09:00,
2013-02-14 02:15:00,23.9,15.9,29.65,ENE,65,0.0,0.0,71,0.00,,---,0.00,VWS V13.01,2013-02-14 08:15:00,
2013-02-14 02:20:00,23.7,15.7,29.65,ENE,65,0.0,0.0,71,0.00,,---,0.00,VWS V13.01,2013-02-14 08:20:00,
2013-02-14 02:25:00,23.5,15.9,29.65,ENE,65,0.0,0.0,72,0.00,,---,0.00,VWS V13.01,2013-02-14 08:25:00,
2013-02-14 02:31:00,23.5,15.9,29.65,ENE,64,0.0,0.0,72,0.00,,---,0.00,VWS V13.01,2013-02-14 08:31:00,
2013-02-14 02:36:00,23.2,15.5,29.65,ENE,65,0.0,0.0,72,0.00,,---,0.00,VWS V13.01,2013-02-14 08:36:00,
2013-02-14 02:42:00,23.0,15.6,29.65,ENE,65,0.0,0.0,73,0.00,,---,0.00,VWS V13.01,2013-02-14 08:42:00,
2013-02-14 02:47:00,23.0,15.6,29.65,ENE,65,0.0,0.0,73,0.00,,---,0.00,VWS V13.01,2013-02-14 08:47:00,
2013-02-14 02:53:00,22.8,15.8,29.65,ENE,64,0.0,0.0,74,0.00,,---,0.00,VWS V13.01,2013-02-14 08:53:00,
2013-02-14 02:58:00,22.8,15.8,29.65,ENE,64,0.0,0.0,74,0.00,,---,0.00,VWS V13.01,2013-02-14 08:58:00,
2013-02-14 03:03:00,22.6,15.6,29.65,ENE,64,0.0,0.0,74,0.00,,---,0.00,VWS V13.01,2013-02-14 09:03:00,
2013-02-14 03:08:00,22.6,15.9,29.65,ENE,64,0.0,0.0,75,0.00,,---,0.00,VWS V13.01,2013-02-14 09:08:00,
2013-02-14 03:14:00,22.6,15.9,29.65,ENE,64,0.0,0.0,75,0.00,,---,0.00,VWS V13.01,2013-02-14 09:14:00,
2013-02-14 03:19:00,22.6,15.9,29.65,ENE,64,0.0,0.0,75,0.00,,---,0.00,VWS V13.01,2013-02-14 09:19:00,
2013-02-14 03:25:00,22.8,16.1,29.65,ENE,64,0.0,0.0,75,0.00,,---,0.00,VWS V13.01,2013-02-14 09:25:00,
2013-02-14 03:30:00,23.0,16.6,29.65,ENE,64,0.0,0.0,76,0.00,,---,0.00,VWS V13.01,2013-02-14 09:30:00,
2013-02-14 03:35:00,23.2,16.8,29.65,ENE,65,0.0,0.0,76,0.00,,---,0.00,VWS V13.01,2013-02-14 09:35:00,
2013-02-14 03:41:00,23.4,16.9,29.65,North,357,3.6,4.5,76,0.00,,---,0.00,VWS V13.01,2013-02-14 09:41:00,
2013-02-14 03:47:00,23.5,17.1,29.65,North,357,3.1,3.6,76,0.00,,---,0.00,VWS V13.01,2013-02-14 09:47:00,
2013-02-14 03:53:00,23.5,17.1,29.65,North,357,2.7,2.7,76,0.00,,---,0.00,VWS V13.01,2013-02-14 09:53:00,
2013-02-14 03:58:00,23.7,17.3,29.65,WNW,296,4.7,4.7,76,0.00,,---,0.00,VWS V13.01,2013-02-14 09:58:00,
2013-02-14 04:03:00,23.7,17.3,29.65,NW,316,3.6,4.0,76,0.00,,---,0.00,VWS V13.01,2013-02-14 10:03:00,
2013-02-14 04:08:00,23.9,17.1,29.65,NW,316,4.0,4.0,75,0.00,,---,0.00,VWS V13.01,2013-02-14 10:08:00,
2013-02-14 04:13:00,24.1,17.3,29.68,NW,316,3.6,4.0,75,0.00,,---,0.00,VWS V13.01,2013-02-14 10:13:00,
2013-02-14 04:18:00,24.3,17.5,29.68,NW,316,0.0,0.0,75,0.00,,---,0.00,VWS V13.01,2013-02-14 10:18:00,
2013-02-14 04:24:00,24.3,17.5,29.68,NW,316,0.0,0.0,75,0.00,,---,0.00,VWS V13.01,2013-02-14 10:24:00,
2013-02-14 04:29:00,24.3,17.5,29.68,NW,316,0.0,0.0,75,0.00,,---,0.00,VWS V13.01,2013-02-14 10:29:00,
2013-02-14 04:35:00,24.4,17.4,29.68,NW,316,0.0,0.0,74,0.00,,---,0.00,VWS V13.01,2013-02-14 10:35:00,
2013-02-14 04:41:00,24.4,17.4,29.68,NW,316,0.0,0.0,74,0.00,,---,0.00,VWS V13.01,2013-02-14 10:41:00,
2013-02-14 04:46:00,24.4,17.4,29.68,NW,316,0.0,0.0,74,0.00,,---,0.00,VWS V13.01,2013-02-14 10:46:00,
2013-02-14 04:52:00,24.4,17.4,29.68,NW,316,0.0,0.0,74,0.00,,---,0.00,VWS V13.01,2013-02-14 10:52:00,
2013-02-14 04:57:00,24.4,17.0,29.68,NW,316,0.0,0.0,73,0.00,,---,0.00,VWS V13.01,2013-02-14 10:57:00,
2013-02-14 05:02:00,24.4,17.0,29.68,NW,316,0.0,0.0,73,0.00,,---,0.00,VWS V13.01,2013-02-14 11:02:00,
2013-02-14 05:08:00,24.6,17.2,29.68,NW,316,0.0,0.0,73,0.00,,---,0.00,VWS V13.01,2013-02-14 11:08:00,
2013-02-14 05:13:00,24.6,17.2,29.68,NW,316,0.0,0.0,73,0.00,,---,0.00,VWS V13.01,2013-02-14 11:13:00,
2013-02-14 05:19:00,24.6,17.2,29.68,NW,316,0.0,0.0,73,0.00,,---,0.00,VWS V13.01,2013-02-14 11:19:00,
2013-02-14 05:24:00,24.8,17.4,29.68,NW,316,0.0,0.0,73,0.00,,---,0.00,VWS V13.01,2013-02-14 11:24:00,
2013-02-14 05:30:00,25.0,17.2,29.68,NNW,329,3.6,3.6,72,0.00,,---,0.00,VWS V13.01,2013-02-14 11:30:00,
2013-02-14 05:36:00,25.2,17.4,29.68,NNW,329,2.7,3.1,72,0.00,,---,0.00,VWS V13.01,2013-02-14 11:36:00,
2013-02-14 05:42:00,25.2,17.4,29.68,NNW,329,2.7,3.6,72,0.00,,---,0.00,VWS V13.01,2013-02-14 11:42:00,
2013-02-14 05:47:00,25.2,17.4,29.68,NNW,329,3.6,3.6,72,0.00,,---,0.00,VWS V13.01,2013-02-14 11:47:00,
2013-02-14 05:52:00,25.2,17.4,29.68,NNW,329,4.0,4.0,72,0.00,,---,0.00,VWS V13.01,2013-02-14 11:52:00,
2013-02-14 05:57:00,25.2,17.4,29.71,NNW,329,4.7,4.7,72,0.00,,---,0.00,VWS V13.01,2013-02-14 11:57:00,
2013-02-14 06:02:00,25.3,17.6,29.71,NNW,329,3.1,4.0,72,0.00,,---,0.00,VWS V13.01,2013-02-14 12:02:00,
2013-02-14 06:07:00,25.3,17.6,29.71,North,11,4.5,4.5,72,0.00,,---,0.00,VWS V13.01,2013-02-14 12:07:00,
2013-02-14 06:13:00,25.3,17.6,29.71,NNE,14,2.7,4.5,72,0.00,,---,0.00,VWS V13.01,2013-02-14 12:13:00,
2013-02-14 06:19:00,25.5,17.8,29.71,North,357,4.0,4.5,72,0.00,,---,0.00,VWS V13.01,2013-02-14 12:19:00,
2013-02-14 06:25:00,25.5,17.8,29.71,North,357,4.0,4.5,72,0.00,,---,0.00,VWS V13.01,2013-02-14 12:25:00,
2013-02-14 06:30:00,25.5,17.8,29.71,North,357,3.1,3.6,72,0.00,,---,0.00,VWS V13.01,2013-02-14 12:30:00,
2013-02-14 06:35:00,25.5,17.8,29.71,North,357,4.0,4.0,72,0.00,,---,0.00,VWS V13.01,2013-02-14 12:35:00,
2013-02-14 06:41:00,25.7,17.6,29.71,North,357,3.6,4.0,71,0.00,,---,0.00,VWS V13.01,2013-02-14 12:41:00,
2013-02-14 06:46:00,25.7,17.6,29.71,North,357,4.0,4.0,71,0.00,,---,0.00,VWS V13.01,2013-02-14 12:46:00,
2013-02-14 06:52:00,25.9,17.8,29.71,North,357,3.1,4.5,71,0.00,,---,0.00,VWS V13.01,2013-02-14 12:52:00,
2013-02-14 06:58:00,25.9,17.5,29.71,North,357,0.0,2.7,70,0.00,,---,0.00,VWS V13.01,2013-02-14 12:58:00,
2013-02-14 07:03:00,25.9,17.5,29.71,North,357,2.7,3.1,70,0.00,,---,0.00,VWS V13.01,2013-02-14 13:03:00,
2013-02-14 07:09:00,25.9,17.1,29.71,North,357,0.0,0.0,69,0.00,,---,0.00,VWS V13.01,2013-02-14 13:09:00,
2013-02-14 07:15:00,25.9,17.1,29.71,North,357,0.0,0.0,69,0.00,,---,0.00,VWS V13.01,2013-02-14 13:15:00,
2013-02-14 07:20:00,25.9,16.8,29.71,North,357,0.0,0.0,68,0.00,,---,0.00,VWS V13.01,2013-02-14 13:20:00,
2013-02-14 07:26:00,25.9,16.8,29.71,North,357,0.0,0.0,68,0.00,,---,0.00,VWS V13.01,2013-02-14 13:26:00,
2013-02-14 07:32:00,25.9,16.5,29.71,North,357,0.0,0.0,67,0.00,,---,0.00,VWS V13.01,2013-02-14 13:32:00,
2013-02-14 07:37:00,25.9,16.1,29.71,North,357,3.6,3.6,66,0.00,,---,0.00,VWS V13.01,2013-02-14 13:37:00,
2013-02-14 07:42:00,25.9,16.1,29.74,North,357,3.6,4.0,66,0.00,,---,0.00,VWS V13.01,2013-02-14 13:42:00,
2013-02-14 07:47:00,25.9,15.8,29.74,North,357,3.6,3.6,65,0.00,,---,0.00,VWS V13.01,2013-02-14 13:47:00,
2013-02-14 07:53:00,26.1,15.2,29.74,North,357,0.0,3.6,63,0.00,,---,0.00,VWS V13.01,2013-02-14 13:53:00,
2013-02-14 07:58:00,26.1,15.2,29.74,North,357,3.1,3.6,63,0.00,,---,0.00,VWS V13.01,2013-02-14 13:58:00,
2013-02-14 08:04:00,26.1,14.8,29.74,North,357,3.6,3.6,62,0.00,,---,0.00,VWS V13.01,2013-02-14 14:04:00,
2013-02-14 08:09:00,26.1,14.5,29.74,North,357,4.0,4.5,61,0.00,,---,0.00,VWS V13.01,2013-02-14 14:09:00,
2013-02-14 08:15:00,26.2,14.6,29.74,North,357,4.7,4.7,61,0.00,,---,0.00,VWS V13.01,2013-02-14 14:15:00,
2013-02-14 08:20:00,26.4,14.4,29.74,North,357,4.0,4.5,60,0.00,,---,0.00,VWS V13.01,2013-02-14 14:20:00,
2013-02-14 08:25:00,26.6,14.6,29.74,NNW,348,4.7,5.6,60,0.00,,---,0.00,VWS V13.01,2013-02-14 14:25:00,
2013-02-14 08:30:00,26.6,14.6,29.74,North,357,4.5,4.5,60,0.00,,---,0.00,VWS V13.01,2013-02-14 14:30:00,
2013-02-14 08:35:00,26.8,14.8,29.74,North,4,3.6,4.0,60,0.00,,---,0.00,VWS V13.01,2013-02-14 14:35:00,
2013-02-14 08:40:00,27.0,15.3,29.74,North,4,4.5,4.5,61,0.00,,---,0.00,VWS V13.01,2013-02-14 14:40:00,
2013-02-14 08:46:00,27.0,15.3,29.74,North,357,5.6,5.6,61,0.00,,---,0.00,VWS V13.01,2013-02-14 14:46:00,
2013-02-14 08:52:00,27.1,15.1,29.74,North,357,5.1,5.1,60,0.00,,---,0.00,VWS V13.01,2013-02-14 14:52:00,
2013-02-14 08:58:00,27.3,15.3,29.77,NNE,17,4.7,5.1,60,0.00,,---,0.00,VWS V13.01,2013-02-14 14:58:00,
2013-02-14 09:03:00,27.5,15.4,29.77,NNE,28,4.7,4.7,60,0.00,,---,0.00,VWS V13.01,2013-02-14 15:03:00,
2013-02-14 09:08:00,27.7,16.0,29.77,East,87,5.6,5.6,61,0.00,,---,0.00,VWS V13.01,2013-02-14 15:08:00,
2013-02-14 09:14:00,27.5,15.8,29.77,NNE,16,5.1,5.1,61,0.00,,---,0.00,VWS V13.01,2013-02-14 15:14:00,
2013-02-14 09:20:00,27.3,15.3,29.77,North,11,5.1,7.4,60,0.00,,---,0.00,VWS V13.01,2013-02-14 15:20:00,
2013-02-14 09:26:00,27.3,14.1,29.77,NNE,29,5.6,6.5,57,0.00,,---,0.00,VWS V13.01,2013-02-14 15:26:00,
2013-02-14 09:31:00,27.3,14.1,29.77,NE,41,4.5,5.1,57,0.00,,---,0.00,VWS V13.01,2013-02-14 15:31:00,
2013-02-14 09:36:00,27.3,14.1,29.77,NNE,19,5.1,6.5,57,0.00,,---,0.00,VWS V13.01,2013-02-14 15:36:00,
2013-02-14 09:42:00,27.3,13.7,29.77,NNE,23,4.7,6.0,56,0.00,,---,0.00,VWS V13.01,2013-02-14 15:42:00,
2013-02-14 09:47:00,27.3,13.7,29.77,NNE,33,4.7,5.1,56,0.00,,---,0.00,VWS V13.01,2013-02-14 15:47:00,
2013-02-14 09:53:00,27.3,14.1,29.77,North,9,4.5,4.5,57,0.00,,---,0.00,VWS V13.01,2013-02-14 15:53:00,
2013-02-14 09:58:00,27.5,14.7,29.77,NE,37,4.7,5.1,58,0.00,,---,0.00,VWS V13.01,2013-02-14 15:58:00,
2013-02-14 10:04:00,27.9,14.6,29.77,North,10,3.6,3.6,57,0.00,,---,0.00,VWS V13.01,2013-02-14 16:04:00,
2013-02-14 10:09:00,27.9,14.2,29.77,North,357,5.6,5.6,56,0.00,,---,0.00,VWS V13.01,2013-02-14 16:09:00,
2013-02-14 10:15:00,27.5,13.1,29.77,NNW,341,6.0,6.5,54,0.00,,---,0.00,VWS V13.01,2013-02-14 16:15:00,
2013-02-14 10:21:00,27.3,12.9,29.77,NNE,23,6.9,7.4,54,0.00,,---,0.00,VWS V13.01,2013-02-14 16:21:00,
2013-02-14 10:26:00,27.3,12.9,29.77,NNE,17,5.6,7.4,54,0.00,,---,0.00,VWS V13.01,2013-02-14 16:26:00,
2013-02-14 10:32:00,27.1,12.7,29.80,North,350,5.1,5.1,54,0.00,,---,0.00,VWS V13.01,2013-02-14 16:32:00,
2013-02-14 10:37:00,27.1,12.7,29.80,NNE,13,4.7,6.5,54,0.00,,---,0.00,VWS V13.01,2013-02-14 16:37:00,
2013-02-14 10:43:00,27.1,12.7,29.80,NNE,14,5.1,6.0,54,0.00,,---,0.00,VWS V13.01,2013-02-14 16:43:00,
2013-02-14 10:49:00,27.1,12.3,29.80,NNE,12,4.7,4.7,53,0.00,,---,0.00,VWS V13.01,2013-02-14 16:49:00,
2013-02-14 10:54:00,27.3,12.5,29.80,NNE,30,5.1,6.5,53,0.00,,---,0.00,VWS V13.01,2013-02-14 16:54:00,
2013-02-14 11:00:00,27.3,12.0,29.80,North,10,5.1,6.5,52,0.00,,---,0.00,VWS V13.01,2013-02-14 17:00:00,
2013-02-14 11:05:00,27.3,12.5,29.80,NNE,29,4.5,5.6,53,0.00,,---,0.00,VWS V13.01,2013-02-14 17:05:00,
2013-02-14 11:11:00,27.1,13.1,29.80,NNE,19,4.5,5.6,55,0.00,,---,0.00,VWS V13.01,2013-02-14 17:11:00,
2013-02-14 11:16:00,26.6,13.0,29.80,NNE,17,6.5,8.7,56,0.00,,---,0.00,VWS V13.01,2013-02-14 17:16:00,
2013-02-14 11:22:00,25.9,13.1,29.80,North,7,7.4,7.4,58,0.00,,---,0.00,VWS V13.01,2013-02-14 17:22:00,
2013-02-14 11:28:00,25.5,12.8,29.80,NE,43,7.8,8.7,58,0.00,,---,0.00,VWS V13.01,2013-02-14 17:28:00,
2013-02-14 11:33:00,25.2,12.1,29.80,North,350,5.6,7.4,57,0.00,,---,0.00,VWS V13.01,2013-02-14 17:33:00,
2013-02-14 11:38:00,25.2,12.1,29.80,NNE,12,6.5,6.9,57,0.00,,---,0.00,VWS V13.01,2013-02-14 17:38:00,
2013-02-14 11:44:00,25.0,11.9,29.80,NE,36,5.6,7.8,57,0.00,,---,0.00,VWS V13.01,2013-02-14 17:44:00,
2013-02-14 11:49:00,24.8,10.5,29.80,NNE,20,9.4,9.4,54,0.00,,---,0.00,VWS V13.01,2013-02-14 17:49:00,
2013-02-14 11:55:00,24.4,10.2,29.80,NNE,12,6.9,8.3,54,0.00,,---,0.00,VWS V13.01,2013-02-14 17:55:00,
2013-02-14 12:00:00,24.3,9.6,29.83,NNE,30,7.8,8.3,53,0.00,,---,0.00,VWS V13.01,2013-02-14 18:00:00,
2013-02-14 12:05:00,23.9,8.9,29.83,NE,45,6.5,8.9,52,0.00,,---,0.00,VWS V13.01,2013-02-14 18:05:00,
2013-02-14 12:10:00,23.9,8.4,29.83,NE,43,8.3,9.4,51,0.00,,---,0.00,VWS V13.01,2013-02-14 18:10:00,
2013-02-14 12:16:00,23.5,7.7,29.83,NNE,18,8.3,8.3,50,0.00,,---,0.00,VWS V13.01,2013-02-14 18:16:00,
2013-02-14 12:21:00,23.2,7.3,29.83,NNE,15,7.4,7.8,50,0.00,,---,0.00,VWS V13.01,2013-02-14 18:21:00,
2013-02-14 12:26:00,23.0,7.1,29.83,NNE,17,8.3,8.3,50,0.00,,---,0.00,VWS V13.01,2013-02-14 18:26:00,
2013-02-14 12:32:00,22.6,6.8,29.83,North,7,8.7,8.7,50,0.00,,---,0.00,VWS V13.01,2013-02-14 18:32:00,
2013-02-14 12:38:00,22.5,7.1,29.83,North,7,6.9,8.3,51,0.00,,---,0.00,VWS V13.01,2013-02-14 18:38:00,
2013-02-14 12:44:00,22.6,7.2,29.83,NNE,24,8.3,8.3,51,0.00,,---,0.00,VWS V13.01,2013-02-14 18:44:00,
2013-02-14 12:49:00,22.5,6.2,29.83,North,357,7.8,8.7,49,0.00,,---,0.00,VWS V13.01,2013-02-14 18:49:00,
2013-02-14 12:55:00,22.3,6.5,29.83,ENE,73,4.7,7.8,50,0.00,,---,0.00,VWS V13.01,2013-02-14 18:55:00,
2013-02-14 13:01:00,22.5,6.6,29.83,North,350,6.0,6.0,50,0.00,,---,0.00,VWS V13.01,2013-02-14 19:01:00,
2013-02-14 13:06:00,22.5,6.6,29.83,NE,51,7.8,7.8,50,0.00,,---,0.00,VWS V13.01,2013-02-14 19:06:00,
2013-02-14 13:11:00,22.1,5.9,29.83,NNE,28,6.5,7.4,49,0.00,,---,0.00,VWS V13.01,2013-02-14 19:11:00,
2013-02-14 13:16:00,22.1,5.9,29.85,North,357,4.7,8.3,49,0.00,,---,0.00,VWS V13.01,2013-02-14 19:16:00,
2013-02-14 13:22:00,21.7,5.1,29.85,NNE,26,8.9,9.4,48,0.00,,---,0.00,VWS V13.01,2013-02-14 19:22:00,
2013-02-14 13:27:00,21.4,4.8,29.85,North,9,4.7,6.0,48,0.00,,---,0.00,VWS V13.01,2013-02-14 19:27:00,
2013-02-14 13:33:00,21.2,5.0,29.85,NNE,13,6.5,8.7,49,0.00,,---,0.00,VWS V13.01,2013-02-14 19:33:00,
2013-02-14 13:38:00,20.7,4.1,29.85,NNE,19,7.4,7.8,48,0.00,,---,0.00,VWS V13.01,2013-02-14 19:38:00,
2013-02-14 13:43:00,20.5,4.4,29.85,NE,43,5.6,8.7,49,0.00,,---,0.00,VWS V13.01,2013-02-14 19:43:00,
2013-02-14 13:48:00,20.5,4.4,29.85,NNW,348,7.4,7.4,49,0.00,,---,0.00,VWS V13.01,2013-02-14 19:48:00,
2013-02-14 13:54:00,20.5,4.4,29.85,North,8,6.5,9.4,49,0.00,,---,0.00,VWS V13.01,2013-02-14 19:54:00,
2013-02-14 13:59:00,20.3,3.8,29.85,North,349,5.1,5.1,48,0.00,,---,0.00,VWS V13.01,2013-02-14 19:59:00,
2013-02-14 14:04:00,20.3,3.8,29.85,North,357,6.9,6.9,48,0.00,,---,0.00,VWS V13.01,2013-02-14 20:04:00,
2013-02-14 14:10:00,20.1,3.6,29.85,NNE,29,6.9,9.4,48,0.00,,---,0.00,VWS V13.01,2013-02-14 20:10:00,
2013-02-14 14:15:00,19.9,3.0,29.88,NNE,32,5.6,8.3,47,0.00,,---,0.00,VWS V13.01,2013-02-14 20:15:00,
2013-02-14 14:20:00,19.8,2.8,29.88,NNE,28,5.1,5.1,47,0.00,,---,0.00,VWS V13.01,2013-02-14 20:20:00,
2013-02-14 14:25:00,19.8,2.8,29.88,North,10,5.1,6.5,47,0.00,,---,0.00,VWS V13.01,2013-02-14 20:25:00,
2013-02-14 14:30:00,19.8,2.3,29.88,NE,46,7.4,7.8,46,0.00,,---,0.00,VWS V13.01,2013-02-14 20:30:00,
2013-02-14 14:35:00,19.8,2.3,29.88,ENE,57,5.6,5.6,46,0.00,,---,0.00,VWS V13.01,2013-02-14 20:35:00,
2013-02-14 14:40:00,19.9,2.5,29.88,North,8,6.0,6.0,46,0.00,,---,0.00,VWS V13.01,2013-02-14 20:40:00,
2013-02-14 14:46:00,19.9,2.0,29.88,North,5,4.5,6.5,45,0.00,,---,0.00,VWS V13.01,2013-02-14 20:46:00,
2013-02-14 14:51:00,19.9,1.5,29.88,North,357,4.7,4.7,44,0.00,,---,0.00,VWS V13.01,2013-02-14 20:51:00,
2013-02-14 14:57:00,20.3,1.9,29.88,North,6,5.1,5.6,44,0.00,,---,0.00,VWS V13.01,2013-02-14 20:57:00,
2013-02-14 15:02:00,20.3,1.9,29.88,North,1,5.6,5.6,44,0.00,,---,0.00,VWS V13.01,2013-02-14 21:02:00,
2013-02-14 15:08:00,20.1,1.7,29.88,North,9,4.7,6.9,44,0.00,,---,0.00,VWS V13.01,2013-02-14 21:08:00,
2013-02-14 15:14:00,20.3,1.4,29.91,North,357,6.9,8.3,43,0.00,,---,0.00,VWS V13.01,2013-02-14 21:14:00,
2013-02-14 15:19:00,20.3,1.4,29.91,North,3,6.0,6.5,43,0.00,,---,0.00,VWS V13.01,2013-02-14 21:19:00,
2013-02-14 15:25:00,20.5,1.5,29.91,North,9,4.7,5.1,43,0.00,,---,0.00,VWS V13.01,2013-02-14 21:25:00,
2013-02-14 15:30:00,20.5,1.5,29.91,NE,56,5.6,6.0,43,0.00,,---,0.00,VWS V13.01,2013-02-14 21:30:00,
2013-02-14 15:35:00,20.7,1.7,29.91,NNE,13,5.6,6.9,43,0.00,,---,0.00,VWS V13.01,2013-02-14 21:35:00,
2013-02-14 15:41:00,20.5,1.0,29.91,North,349,6.5,6.5,42,0.00,,---,0.00,VWS V13.01,2013-02-14 21:41:00,
2013-02-14 15:46:00,20.3,0.9,29.91,North,357,5.1,7.8,42,0.00,,---,0.00,VWS V13.01,2013-02-14 21:46:00,
2013-02-14 15:52:00,20.5,1.0,29.91,NE,38,6.5,6.5,42,0.00,,---,0.00,VWS V13.01,2013-02-14 21:52:00,
2013-02-14 15:57:00,20.5,1.0,29.91,NW,312,4.5,5.6,42,0.00,,---,0.00,VWS V13.01,2013-02-14 21:57:00,
2013-02-14 16:02:00,20.5,1.0,29.91,North,353,5.1,5.1,42,0.00,,---,0.00,VWS V13.01,2013-02-14 22:02:00,
2013-02-14 16:07:00,20.5,1.0,29.91,NE,43,4.7,4.7,42,0.00,,---,0.00,VWS V13.01,2013-02-14 22:07:00,
2013-02-14 16:13:00,20.5,1.0,29.94,NNW,332,4.5,4.7,42,0.00,,---,0.00,VWS V13.01,2013-02-14 22:13:00,
2013-02-14 16:18:00,20.3,0.9,29.94,NNW,337,5.1,5.6,42,0.00,,---,0.00,VWS V13.01,2013-02-14 22:18:00,
2013-02-14 16:24:00,20.1,0.7,29.94,NNW,346,5.6,6.0,42,0.00,,---,0.00,VWS V13.01,2013-02-14 22:24:00,
2013-02-14 16:30:00,19.9,0.6,29.94,North,8,4.7,6.9,42,0.00,,---,0.00,VWS V13.01,2013-02-14 22:30:00,
2013-02-14 16:35:00,19.8,0.4,29.94,NNE,30,4.0,5.1,42,0.00,,---,0.00,VWS V13.01,2013-02-14 22:35:00,
2013-02-14 16:41:00,19.6,-0.3,29.94,NNW,345,5.6,5.6,41,0.00,,---,0.00,VWS V13.01,2013-02-14 22:41:00,
2013-02-14 16:46:00,19.6,-0.3,29.94,SW,219,4.5,4.5,41,0.00,,---,0.00,VWS V13.01,2013-02-14 22:46:00,
2013-02-14 16:52:00,19.4,0.1,29.94,North,357,4.7,6.0,42,0.00,,---,0.00,VWS V13.01,2013-02-14 22:52:00,
2013-02-14 16:57:00,19.2,-0.1,29.94,ENE,78,5.6,5.6,42,0.00,,---,0.00,VWS V13.01,2013-02-14 22:57:00,
2013-02-14 17:02:00,19.2,-0.1,29.94,NNE,16,3.6,4.0,42,0.00,,---,0.00,VWS V13.01,2013-02-14 23:02:00,
2013-02-14 17:08:00,19.0,-0.3,29.94,North,357,3.6,5.1,42,0.00,,---,0.00,VWS V13.01,2013-02-14 23:08:00,
2013-02-14 17:13:00,19.0,-0.3,29.94,NNW,334,2.7,4.5,42,0.00,,---,0.00,VWS V13.01,2013-02-14 23:13:00,
2013-02-14 17:19:00,18.7,-0.1,29.94,North,357,4.0,4.0,43,0.00,,---,0.00,VWS V13.01,2013-02-14 23:19:00,
2013-02-14 17:24:00,18.5,-0.3,29.94,NNW,346,4.0,4.7,43,0.00,,---,0.00,VWS V13.01,2013-02-14 23:24:00,
2013-02-14 17:30:00,18.3,-0.4,29.97,North,350,5.1,5.1,43,0.00,,---,0.00,VWS V13.01,2013-02-14 23:30:00,
2013-02-14 17:36:00,18.1,-0.6,29.97,NW,326,4.5,4.7,43,0.00,,---,0.00,VWS V13.01,2013-02-14 23:36:00,
2013-02-14 17:41:00,18.1,-0.6,29.97,NNW,339,4.5,4.5,43,0.00,,---,0.00,VWS V13.01,2013-02-14 23:41:00,
2013-02-14 17:47:00,18.0,-0.8,29.97,North,357,4.7,4.7,43,0.00,,---,0.00,VWS V13.01,2013-02-14 23:47:00,
2013-02-14 17:53:00,17.8,-0.9,29.97,NNW,343,4.0,4.5,43,0.00,,---,0.00,VWS V13.01,2013-02-14 23:53:00,
2013-02-14 17:58:00,17.8,-0.9,29.97,NNW,343,4.7,4.7,43,0.00,,---,0.00,VWS V13.01,2013-02-14 23:58:00,
2013-02-14 18:04:00,17.6,-1.1,29.97,NNW,343,4.0,4.5,43,0.00,,---,0.00,VWS V13.01,2013-02-15 00:04:00,
2013-02-14 18:09:00,17.4,-1.2,29.97,East,101,4.0,4.0,43,0.00,,---,0.00,VWS V13.01,2013-02-15 00:09:00,
2013-02-14 18:15:00,17.4,-1.2,29.97,East,101,4.0,4.5,43,0.00,,---,0.00,VWS V13.01,2013-02-15 00:15:00,
2013-02-14 18:21:00,17.2,-1.4,29.97,ESE,102,4.0,4.0,43,0.00,,---,0.00,VWS V13.01,2013-02-15 00:21:00,
2013-02-14 18:26:00,17.2,-1.4,29.97,East,101,4.0,5.1,43,0.00,,---,0.00,VWS V13.01,2013-02-15 00:26:00,
2013-02-14 18:31:00,17.2,-1.4,30.00,East,101,2.7,3.6,43,0.00,,---,0.00,VWS V13.01,2013-02-15 00:31:00,
2013-02-14 18:36:00,17.1,-1.6,30.00,ESE,102,4.5,4.5,43,0.00,,---,0.00,VWS V13.01,2013-02-15 00:36:00,
2013-02-14 18:42:00,17.1,-1.6,30.00,NNW,337,4.5,4.7,43,0.00,,---,0.00,VWS V13.01,2013-02-15 00:42:00,
2013-02-14 18:48:00,17.2,-1.4,30.00,North,353,4.7,4.7,43,0.00,,---,0.00,VWS V13.01,2013-02-15 00:48:00,
2013-02-14 18:53:00,17.4,-1.2,30.00,NE,42,4.0,4.7,43,0.00,,---,0.00,VWS V13.01,2013-02-15 00:53:00,
2013-02-14 18:59:00,17.6,-1.1,30.00,NNW,346,4.7,4.7,43,0.00,,---,0.00,VWS V13.01,2013-02-15 00:59:00,
2013-02-14 19:05:00,17.8,-1.4,30.00,NNE,20,4.7,4.7,42,0.00,,---,0.00,VWS V13.01,2013-02-15 01:05:00,
2013-02-14 19:11:00,17.8,-1.4,30.00,North,2,4.0,4.5,42,0.00,,---,0.00,VWS V13.01,2013-02-15 01:11:00,
2013-02-14 19:16:00,17.8,-1.4,30.00,NNW,345,6.9,7.4,42,0.00,,---,0.00,VWS V13.01,2013-02-15 01:16:00,
2013-02-14 19:21:00,17.8,-1.4,30.00,NNW,340,4.5,8.3,42,0.00,,---,0.00,VWS V13.01,2013-02-15 01:21:00,
2013-02-14 19:27:00,18.1,-1.6,30.00,SSE,160,6.0,8.7,41,0.00,,---,0.00,VWS V13.01,2013-02-15 01:27:00,
2013-02-14 19:33:00,18.1,-1.6,30.00,North,10,4.5,7.4,41,0.00,,---,0.00,VWS V13.01,2013-02-15 01:33:00,
2013-02-14 19:38:00,18.1,-1.6,30.00,NNE,14,4.0,6.5,41,0.00,,---,0.00,VWS V13.01,2013-02-15 01:38:00,
2013-02-14 19:43:00,18.1,-1.6,30.00,North,353,5.6,6.5,41,0.00,,---,0.00,VWS V13.01,2013-02-15 01:43:00,
2013-02-14 19:48:00,18.0,-1.8,30.00,NNE,20,4.0,5.6,41,0.00,,---,0.00,VWS V13.01,2013-02-15 01:48:00,
2013-02-14 19:54:00,17.8,-1.9,30.00,NNE,22,4.7,6.0,41,0.00,,---,0.00,VWS V13.01,2013-02-15 01:54:00,
2013-02-14 19:59:00,17.6,-2.1,30.00,NNE,16,5.6,5.6,41,0.00,,---,0.00,VWS V13.01,2013-02-15 01:59:00,
2013-02-14 20:04:00,17.6,-1.6,30.00,North,357,5.1,6.5,42,0.00,,---,0.00,VWS V13.01,2013-02-15 02:04:00,
2013-02-14 20:09:00,17.4,-1.7,30.00,NNW,338,6.9,6.9,42,0.00,,---,0.00,VWS V13.01,2013-02-15 02:09:00,
2013-02-14 20:15:00,17.4,-1.7,30.00,NE,51,5.1,6.5,42,0.00,,---,0.00,VWS V13.01,2013-02-15 02:15:00,
2013-02-14 20:21:00,17.4,-1.7,30.00,NNW,329,4.5,5.6,42,0.00,,---,0.00,VWS V13.01,2013-02-15 02:21:00,
2013-02-14 20:26:00,17.1,-2.1,30.00,NNW,348,4.7,5.1,42,0.00,,---,0.00,VWS V13.01,2013-02-15 02:26:00,
2013-02-14 20:32:00,16.9,-2.2,30.03,North,353,4.5,5.1,42,0.00,,---,0.00,VWS V13.01,2013-02-15 02:32:00,
2013-02-14 20:37:00,16.7,-2.4,30.03,NNW,335,4.7,6.0,42,0.00,,---,0.00,VWS V13.01,2013-02-15 02:37:00,
2013-02-14 20:42:00,16.7,-2.4,30.03,North,353,4.5,4.5,42,0.00,,---,0.00,VWS V13.01,2013-02-15 02:42:00,
2013-02-14 20:47:00,16.7,-2.4,30.03,NNW,336,4.5,4.7,42,0.00,,---,0.00,VWS V13.01,2013-02-15 02:47:00,
2013-02-14 20:53:00,16.5,-2.1,30.03,North,350,4.0,4.7,43,0.00,,---,0.00,VWS V13.01,2013-02-15 02:53:00,
2013-02-14 20:58:00,16.2,-2.4,30.03,NNW,343,4.0,4.5,43,0.00,,---,0.00,VWS V13.01,2013-02-15 02:58:00,
2013-02-14 21:04:00,16.0,-2.6,30.03,North,353,4.5,4.7,43,0.00,,---,0.00,VWS V13.01,2013-02-15 03:04:00,
2013-02-14 21:09:00,16.0,-2.6,30.03,North,353,3.6,4.5,43,0.00,,---,0.00,VWS V13.01,2013-02-15 03:09:00,
2013-02-14 21:15:00,15.8,-2.2,30.03,North,357,4.0,4.7,44,0.00,,---,0.00,VWS V13.01,2013-02-15 03:15:00,
2013-02-14 21:21:00,15.4,-2.6,30.03,ENE,68,4.7,4.7,44,0.00,,---,0.00,VWS V13.01,2013-02-15 03:21:00,
2013-02-14 21:26:00,15.4,-2.6,30.03,North,350,5.1,5.1,44,0.00,,---,0.00,VWS V13.01,2013-02-15 03:26:00,
2013-02-14 21:32:00,15.3,-2.7,30.03,NNW,340,4.0,4.5,44,0.00,,---,0.00,VWS V13.01,2013-02-15 03:32:00,
2013-02-14 21:37:00,15.1,-2.9,30.03,NNW,334,4.5,5.1,44,0.00,,---,0.00,VWS V13.01,2013-02-15 03:37:00,
2013-02-14 21:43:00,15.1,-2.9,30.03,North,350,4.5,4.7,44,0.00,,---,0.00,VWS V13.01,2013-02-15 03:43:00,
2013-02-14 21:49:00,15.1,-2.9,30.03,NNW,346,4.5,4.7,44,0.00,,---,0.00,VWS V13.01,2013-02-15 03:49:00,
2013-02-14 21:54:00,15.1,-2.9,30.03,NNW,328,5.1,5.1,44,0.00,,---,0.00,VWS V13.01,2013-02-15 03:54:00,
2013-02-14 22:00:00,15.1,-2.9,30.03,North,350,5.1,6.9,44,0.00,,---,0.00,VWS V13.01,2013-02-15 04:00:00,
2013-02-14 22:05:00,15.1,-2.9,30.03,NNW,339,4.7,4.7,44,0.00,,---,0.00,VWS V13.01,2013-02-15 04:05:00,
2013-02-14 22:11:00,15.1,-2.9,30.03,North,353,3.1,5.6,44,0.00,,---,0.00,VWS V13.01,2013-02-15 04:11:00,
2013-02-14 22:17:00,15.1,-2.9,30.03,North,353,4.7,5.1,44,0.00,,---,0.00,VWS V13.01,2013-02-15 04:17:00,
2013-02-14 22:22:00,15.1,-2.9,30.03,North,353,4.5,4.5,44,0.00,,---,0.00,VWS V13.01,2013-02-15 04:22:00,
2013-02-14 22:29:00,14.9,-3.1,30.03,NNW,343,4.7,5.1,44,0.00,,---,0.00,VWS V13.01,2013-02-15 04:29:00,
2013-02-14 22:34:00,14.5,-3.4,30.03,NNW,338,4.0,4.0,44,0.00,,---,0.00,VWS V13.01,2013-02-15 04:34:00,
2013-02-14 22:40:00,14.5,-3.4,30.03,NNE,15,3.6,4.7,44,0.00,,---,0.00,VWS V13.01,2013-02-15 04:40:00,
2013-02-14 22:45:00,14.4,-3.6,30.03,NW,326,5.1,5.1,44,0.00,,---,0.00,VWS V13.01,2013-02-15 04:45:00,
2013-02-14 22:51:00,14.2,-3.7,30.03,NNW,336,4.0,4.5,44,0.00,,---,0.00,VWS V13.01,2013-02-15 04:51:00,
2013-02-14 22:56:00,14.2,-3.7,30.03,NNW,335,4.5,4.5,44,0.00,,---,0.00,VWS V13.01,2013-02-15 04:56:00,
2013-02-14 23:00:00,14.2,-3.7,30.03,NNW,338,3.6,4.0,44,0.00,,---,0.00,VWS V13.01,2013-02-15 05:00:00,
2013-02-14 23:01:00,14.2,-3.7,30.03,NNW,338,3.6,4.5,44,0.00,,---,0.00,VWS V13.01,2013-02-15 05:01:00,
2013-02-14 23:07:00,14.0,-3.9,30.03,NNW,338,4.0,4.5,44,0.00,,---,0.00,VWS V13.01,2013-02-15 05:07:00,
2013-02-14 23:12:00,13.8,-4.1,30.03,NNW,338,3.1,4.0,44,0.00,,---,0.00,VWS V13.01,2013-02-15 05:12:00,
2013-02-14 23:17:00,13.8,-4.1,30.03,NNW,342,4.0,4.5,44,0.00,,---,0.00,VWS V13.01,2013-02-15 05:17:00,
2013-02-14 23:21:00,13.8,-4.1,30.03,NNW,345,3.6,4.5,44,0.00,,---,0.00,VWS V13.01,2013-02-15 05:21:00,
2013-02-14 23:26:00,13.6,-4.2,30.03,North,357,3.1,3.6,44,0.00,,---,0.00,VWS V13.01,2013-02-15 05:26:00,
2013-02-14 23:32:00,13.6,-4.2,30.03,North,357,3.1,3.6,44,0.00,,---,0.00,VWS V13.01,2013-02-15 05:32:00,
2013-02-14 23:37:00,13.6,-4.2,30.03,North,357,3.1,3.1,44,0.00,,---,0.00,VWS V13.01,2013-02-15 05:37:00,
2013-02-14 23:43:00,13.5,-4.4,30.06,North,357,3.1,4.0,44,0.00,,---,0.00,VWS V13.01,2013-02-15 05:43:00,
2013-02-14 23:48:00,13.3,-4.6,30.06,North,357,3.6,3.6,44,0.00,,---,0.00,VWS V13.01,2013-02-15 05:48:00,
2013-02-14 23:53:00,13.3,-4.6,30.06,North,357,4.0,4.5,44,0.00,,---,0.00,VWS V13.01,2013-02-15 05:53:00,
2013-02-14 23:59:00,13.3,-4.6,30.06,NNW,346,5.1,5.1,44,0.00,,---,0.00,VWS V13.01,2013-02-15 05:59:00,